sensor_id;sensor_type;location;lat;lon;timestamp;P1;durP1;ratioP1;P2;durP2;ratioP2
21505;SDS011;10914;48.886;9.394;2023-03-26T00:00:51;28.50;;;27.00;;
21505;SDS011;10914;48.886;9.394;2023-03-26T00:03:19;28.40;;;26.90;;
21505;SDS011;10914;48.886;9.394;2023-03-26T00:05:44;29.85;;;28.35;;
21505;SDS011;10914;48.886;9.394;2023-03-26T00:08:13;30.02;;;28.33;;
21505;SDS011;10914;48.886;9.394;2023-03-26T00:10:39;29.80;;;27.90;;
21505;SDS011;10914;48.886;9.394;2023-03-26T00:13:05;29.75;;;27.92;;
21505;SDS011;10914;48.886;9.394;2023-03-26T00:15:30;29.85;;;28.15;;
21505;SDS011;10914;48.886;9.394;2023-03-26T00:17:56;31.80;;;30.00;;
21505;SDS011;10914;48.886;9.394;2023-03-26T00:20:21;32.38;;;30.50;;
21505;SDS011;10914;48.886;9.394;2023-03-26T00:22:49;30.25;;;28.60;;
21505;SDS011;10914;48.886;9.394;2023-03-26T00:25:15;29.80;;;28.17;;
21505;SDS011;10914;48.886;9.394;2023-03-26T00:27:40;29.83;;;28.15;;
21505;SDS011;10914;48.886;9.394;2023-03-26T00:30:06;28.17;;;26.48;;
21505;SDS011;10914;48.886;9.394;2023-03-26T00:32:31;27.17;;;25.60;;
21505;SDS011;10914;48.886;9.394;2023-03-26T00:34:56;25.15;;;23.85;;
21505;SDS011;10914;48.886;9.394;2023-03-26T00:37:22;25.02;;;23.42;;
21505;SDS011;10914;48.886;9.394;2023-03-26T00:39:50;23.90;;;22.60;;
21505;SDS011;10914;48.886;9.394;2023-03-26T00:42:16;24.20;;;22.90;;
21505;SDS011;10914;48.886;9.394;2023-03-26T00:44:41;24.25;;;22.85;;
21505;SDS011;10914;48.886;9.394;2023-03-26T00:47:07;24.88;;;23.27;;
21505;SDS011;10914;48.886;9.394;2023-03-26T00:49:32;25.50;;;23.80;;
21505;SDS011;10914;48.886;9.394;2023-03-26T00:51:57;27.15;;;25.65;;
21505;SDS011;10914;48.886;9.394;2023-03-26T00:54:22;27.15;;;25.75;;
21505;SDS011;10914;48.886;9.394;2023-03-26T00:56:47;25.70;;;24.20;;
21505;SDS011;10914;48.886;9.394;2023-03-26T00:59:13;26.33;;;24.80;;
21505;SDS011;10914;48.886;9.394;2023-03-26T01:01:38;27.70;;;25.90;;
21505;SDS011;10914;48.886;9.394;2023-03-26T01:04:18;26.52;;;24.90;;
21505;SDS011;10914;48.886;9.394;2023-03-26T01:06:44;25.88;;;24.40;;
21505;SDS011;10914;48.886;9.394;2023-03-26T01:09:15;25.67;;;24.08;;
21505;SDS011;10914;48.886;9.394;2023-03-26T01:11:41;25.70;;;24.27;;
21505;SDS011;10914;48.886;9.394;2023-03-26T01:14:11;25.50;;;24.15;;
21505;SDS011;10914;48.886;9.394;2023-03-26T01:16:38;25.63;;;24.23;;
21505;SDS011;10914;48.886;9.394;2023-03-26T01:19:06;25.25;;;23.75;;
21505;SDS011;10914;48.886;9.394;2023-03-26T01:21:34;24.48;;;23.17;;
21505;SDS011;10914;48.886;9.394;2023-03-26T01:24:03;25.02;;;23.40;;
21505;SDS011;10914;48.886;9.394;2023-03-26T01:26:36;24.83;;;23.33;;
21505;SDS011;10914;48.886;9.394;2023-03-26T01:29:03;25.00;;;23.38;;
21505;SDS011;10914;48.886;9.394;2023-03-26T01:31:35;24.60;;;23.15;;
21505;SDS011;10914;48.886;9.394;2023-03-26T01:37:15;25.10;;;23.80;;
21505;SDS011;10914;48.886;9.394;2023-03-26T01:39:23;24.10;;;22.80;;
21505;SDS011;10914;48.886;9.394;2023-03-26T01:41:52;24.33;;;22.92;;
21505;SDS011;10914;48.886;9.394;2023-03-26T01:46:46;24.95;;;23.45;;
21505;SDS011;10914;48.886;9.394;2023-03-26T01:49:12;25.65;;;24.10;;
21505;SDS011;10914;48.886;9.394;2023-03-26T01:51:39;24.70;;;23.30;;
21505;SDS011;10914;48.886;9.394;2023-03-26T01:54:05;24.55;;;23.25;;
21505;SDS011;10914;48.886;9.394;2023-03-26T01:56:39;24.98;;;23.58;;
21505;SDS011;10914;48.886;9.394;2023-03-26T01:59:12;25.17;;;23.67;;
21505;SDS011;10914;48.886;9.394;2023-03-26T02:09:51;25.20;;;23.80;;
21505;SDS011;10914;48.886;9.394;2023-03-26T02:12:19;25.40;;;23.95;;
21505;SDS011;10914;48.886;9.394;2023-03-26T02:14:45;25.30;;;23.90;;
21505;SDS011;10914;48.886;9.394;2023-03-26T02:17:10;24.77;;;23.42;;
21505;SDS011;10914;48.886;9.394;2023-03-26T02:19:36;25.20;;;23.92;;
21505;SDS011;10914;48.886;9.394;2023-03-26T02:22:08;25.38;;;23.80;;
21505;SDS011;10914;48.886;9.394;2023-03-26T02:24:35;25.60;;;24.02;;
21505;SDS011;10914;48.886;9.394;2023-03-26T02:27:00;24.77;;;23.38;;
21505;SDS011;10914;48.886;9.394;2023-03-26T02:29:26;25.20;;;23.77;;
21505;SDS011;10914;48.886;9.394;2023-03-26T02:31:51;25.13;;;23.63;;
21505;SDS011;10914;48.886;9.394;2023-03-26T02:34:17;26.17;;;24.55;;
21505;SDS011;10914;48.886;9.394;2023-03-26T02:36:42;25.50;;;24.13;;
21505;SDS011;10914;48.886;9.394;2023-03-26T02:39:13;24.53;;;23.23;;
21505;SDS011;10914;48.886;9.394;2023-03-26T02:41:38;24.88;;;23.48;;
21505;SDS011;10914;48.886;9.394;2023-03-26T02:44:04;25.08;;;23.77;;
21505;SDS011;10914;48.886;9.394;2023-03-26T02:46:32;25.40;;;24.00;;
21505;SDS011;10914;48.886;9.394;2023-03-26T02:48:57;25.50;;;24.15;;
21505;SDS011;10914;48.886;9.394;2023-03-26T02:51:22;25.42;;;24.02;;
21505;SDS011;10914;48.886;9.394;2023-03-26T02:53:49;25.58;;;24.00;;
21505;SDS011;10914;48.886;9.394;2023-03-26T02:56:15;26.60;;;24.80;;
21505;SDS011;10914;48.886;9.394;2023-03-26T02:58:40;26.55;;;25.05;;
21505;SDS011;10914;48.886;9.394;2023-03-26T03:01:06;26.80;;;24.88;;
21505;SDS011;10914;48.886;9.394;2023-03-26T03:03:31;27.55;;;26.02;;
21505;SDS011;10914;48.886;9.394;2023-03-26T03:05:56;26.45;;;25.05;;
21505;SDS011;10914;48.886;9.394;2023-03-26T03:08:23;27.30;;;25.80;;
21505;SDS011;10914;48.886;9.394;2023-03-26T03:10:59;27.75;;;25.98;;
21505;SDS011;10914;48.886;9.394;2023-03-26T03:13:25;28.58;;;26.98;;
21505;SDS011;10914;48.886;9.394;2023-03-26T03:15:50;28.42;;;26.73;;
21505;SDS011;10914;48.886;9.394;2023-03-26T03:18:15;28.90;;;27.10;;
21505;SDS011;10914;48.886;9.394;2023-03-26T03:20:40;28.88;;;27.35;;
21505;SDS011;10914;48.886;9.394;2023-03-26T03:23:06;28.77;;;26.95;;
21505;SDS011;10914;48.886;9.394;2023-03-26T03:25:31;27.93;;;26.53;;
21505;SDS011;10914;48.886;9.394;2023-03-26T03:27:56;27.25;;;25.77;;
21505;SDS011;10914;48.886;9.394;2023-03-26T03:30:22;27.35;;;25.95;;
21505;SDS011;10914;48.886;9.394;2023-03-26T03:32:47;28.15;;;26.42;;
21505;SDS011;10914;48.886;9.394;2023-03-26T03:35:13;28.05;;;26.65;;
21505;SDS011;10914;48.886;9.394;2023-03-26T03:37:38;28.40;;;26.90;;
21505;SDS011;10914;48.886;9.394;2023-03-26T03:40:03;28.65;;;26.98;;
21505;SDS011;10914;48.886;9.394;2023-03-26T03:42:32;28.30;;;26.77;;
21505;SDS011;10914;48.886;9.394;2023-03-26T03:44:57;28.23;;;26.40;;
21505;SDS011;10914;48.886;9.394;2023-03-26T03:47:22;28.87;;;27.10;;
21505;SDS011;10914;48.886;9.394;2023-03-26T03:49:47;28.60;;;27.08;;
21505;SDS011;10914;48.886;9.394;2023-03-26T03:52:13;27.77;;;26.13;;
21505;SDS011;10914;48.886;9.394;2023-03-26T03:54:38;28.90;;;27.27;;
21505;SDS011;10914;48.886;9.394;2023-03-26T03:57:03;28.65;;;27.05;;
21505;SDS011;10914;48.886;9.394;2023-03-26T03:59:28;28.90;;;27.40;;
21505;SDS011;10914;48.886;9.394;2023-03-26T04:01:55;29.02;;;26.92;;
21505;SDS011;10914;48.886;9.394;2023-03-26T04:04:23;28.05;;;26.55;;
21505;SDS011;10914;48.886;9.394;2023-03-26T04:06:49;27.90;;;26.17;;
21505;SDS011;10914;48.886;9.394;2023-03-26T04:09:14;27.42;;;25.92;;
21505;SDS011;10914;48.886;9.394;2023-03-26T04:11:39;28.52;;;27.13;;
21505;SDS011;10914;48.886;9.394;2023-03-26T04:14:04;28.95;;;27.38;;
21505;SDS011;10914;48.886;9.394;2023-03-26T04:16:30;28.73;;;26.88;;
21505;SDS011;10914;48.886;9.394;2023-03-26T04:18:56;28.17;;;26.55;;
21505;SDS011;10914;48.886;9.394;2023-03-26T04:21:22;29.45;;;27.48;;
21505;SDS011;10914;48.886;9.394;2023-03-26T04:23:48;28.38;;;26.73;;
21505;SDS011;10914;48.886;9.394;2023-03-26T04:26:16;29.48;;;27.67;;
21505;SDS011;10914;48.886;9.394;2023-03-26T04:28:44;29.75;;;27.65;;
21505;SDS011;10914;48.886;9.394;2023-03-26T04:31:12;29.38;;;27.70;;
21505;SDS011;10914;48.886;9.394;2023-03-26T04:33:40;30.75;;;28.98;;
21505;SDS011;10914;48.886;9.394;2023-03-26T04:36:10;29.33;;;27.55;;
21505;SDS011;10914;48.886;9.394;2023-03-26T04:38:39;29.67;;;27.70;;
21505;SDS011;10914;48.886;9.394;2023-03-26T04:41:05;29.83;;;27.77;;
21505;SDS011;10914;48.886;9.394;2023-03-26T04:43:31;30.65;;;28.75;;
21505;SDS011;10914;48.886;9.394;2023-03-26T04:45:59;29.88;;;28.13;;
21505;SDS011;10914;48.886;9.394;2023-03-26T04:48:27;33.00;;;31.17;;
21505;SDS011;10914;48.886;9.394;2023-03-26T04:50:52;29.55;;;27.95;;
21505;SDS011;10914;48.886;9.394;2023-03-26T04:53:17;30.58;;;28.98;;
21505;SDS011;10914;48.886;9.394;2023-03-26T04:56:33;32.70;;;30.88;;
21505;SDS011;10914;48.886;9.394;2023-03-26T04:58:29;30.20;;;28.38;;
21505;SDS011;10914;48.886;9.394;2023-03-26T05:00:57;28.13;;;26.63;;
21505;SDS011;10914;48.886;9.394;2023-03-26T05:03:25;29.90;;;28.30;;
21505;SDS011;10914;48.886;9.394;2023-03-26T05:05:55;29.73;;;27.92;;
21505;SDS011;10914;48.886;9.394;2023-03-26T05:08:21;29.02;;;27.33;;
21505;SDS011;10914;48.886;9.394;2023-03-26T05:10:46;29.30;;;27.70;;
21505;SDS011;10914;48.886;9.394;2023-03-26T05:13:11;31.05;;;29.23;;
21505;SDS011;10914;48.886;9.394;2023-03-26T05:15:36;29.85;;;28.05;;
21505;SDS011;10914;48.886;9.394;2023-03-26T05:18:02;30.40;;;28.38;;
21505;SDS011;10914;48.886;9.394;2023-03-26T05:20:27;30.40;;;28.52;;
21505;SDS011;10914;48.886;9.394;2023-03-26T05:22:54;30.13;;;28.45;;
21505;SDS011;10914;48.886;9.394;2023-03-26T05:25:19;30.55;;;28.70;;
21505;SDS011;10914;48.886;9.394;2023-03-26T05:27:45;30.23;;;28.45;;
21505;SDS011;10914;48.886;9.394;2023-03-26T05:30:14;30.65;;;28.85;;
21505;SDS011;10914;48.886;9.394;2023-03-26T05:32:40;30.23;;;28.52;;
21505;SDS011;10914;48.886;9.394;2023-03-26T05:35:05;30.23;;;28.30;;
21505;SDS011;10914;48.886;9.394;2023-03-26T05:37:31;31.70;;;29.60;;
21505;SDS011;10914;48.886;9.394;2023-03-26T05:39:57;31.10;;;29.38;;
21505;SDS011;10914;48.886;9.394;2023-03-26T05:42:25;30.65;;;28.60;;
21505;SDS011;10914;48.886;9.394;2023-03-26T05:44:50;29.58;;;28.13;;
21505;SDS011;10914;48.886;9.394;2023-03-26T05:47:15;31.58;;;29.58;;
21505;SDS011;10914;48.886;9.394;2023-03-26T05:49:40;30.02;;;28.20;;
21505;SDS011;10914;48.886;9.394;2023-03-26T05:52:06;30.58;;;28.40;;
21505;SDS011;10914;48.886;9.394;2023-03-26T05:54:31;28.83;;;27.05;;
21505;SDS011;10914;48.886;9.394;2023-03-26T05:56:57;26.45;;;24.77;;
21505;SDS011;10914;48.886;9.394;2023-03-26T05:59:23;26.38;;;24.88;;
21505;SDS011;10914;48.886;9.394;2023-03-26T06:01:49;25.52;;;23.95;;
21505;SDS011;10914;48.886;9.394;2023-03-26T06:04:15;24.67;;;23.20;;
21505;SDS011;10914;48.886;9.394;2023-03-26T06:06:40;26.35;;;24.45;;
21505;SDS011;10914;48.886;9.394;2023-03-26T06:09:06;23.80;;;22.33;;
21505;SDS011;10914;48.886;9.394;2023-03-26T06:11:31;23.95;;;22.40;;
21505;SDS011;10914;48.886;9.394;2023-03-26T06:13:57;23.25;;;21.90;;
21505;SDS011;10914;48.886;9.394;2023-03-26T06:16:22;23.73;;;22.27;;
21505;SDS011;10914;48.886;9.394;2023-03-26T06:18:47;23.47;;;22.07;;
21505;SDS011;10914;48.886;9.394;2023-03-26T06:21:16;23.98;;;22.58;;
21505;SDS011;10914;48.886;9.394;2023-03-26T06:23:43;24.25;;;22.42;;
21505;SDS011;10914;48.886;9.394;2023-03-26T06:26:09;23.88;;;22.08;;
21505;SDS011;10914;48.886;9.394;2023-03-26T06:28:35;23.95;;;22.35;;
21505;SDS011;10914;48.886;9.394;2023-03-26T06:31:01;24.00;;;22.42;;
21505;SDS011;10914;48.886;9.394;2023-03-26T06:33:27;23.83;;;22.23;;
21505;SDS011;10914;48.886;9.394;2023-03-26T06:35:55;24.25;;;22.48;;
21505;SDS011;10914;48.886;9.394;2023-03-26T06:38:20;24.42;;;22.92;;
21505;SDS011;10914;48.886;9.394;2023-03-26T06:40:45;23.83;;;22.37;;
21505;SDS011;10914;48.886;9.394;2023-03-26T06:43:10;23.98;;;22.58;;
21505;SDS011;10914;48.886;9.394;2023-03-26T06:45:36;24.08;;;22.67;;
21505;SDS011;10914;48.886;9.394;2023-03-26T06:48:01;24.83;;;23.25;;
21505;SDS011;10914;48.886;9.394;2023-03-26T06:50:26;24.25;;;22.65;;
21505;SDS011;10914;48.886;9.394;2023-03-26T06:52:52;24.80;;;23.20;;
21505;SDS011;10914;48.886;9.394;2023-03-26T06:55:20;26.10;;;24.05;;
21505;SDS011;10914;48.886;9.394;2023-03-26T06:57:49;24.63;;;22.98;;
21505;SDS011;10914;48.886;9.394;2023-03-26T07:00:14;27.58;;;25.77;;
21505;SDS011;10914;48.886;9.394;2023-03-26T07:02:40;25.35;;;23.95;;
21505;SDS011;10914;48.886;9.394;2023-03-26T07:05:05;24.15;;;22.65;;
21505;SDS011;10914;48.886;9.394;2023-03-26T07:07:30;23.42;;;22.08;;
21505;SDS011;10914;48.886;9.394;2023-03-26T07:09:56;24.00;;;22.50;;
21505;SDS011;10914;48.886;9.394;2023-03-26T07:12:22;24.37;;;22.93;;
21505;SDS011;10914;48.886;9.394;2023-03-26T07:14:47;23.98;;;22.55;;
21505;SDS011;10914;48.886;9.394;2023-03-26T07:17:12;23.75;;;22.08;;
21505;SDS011;10914;48.886;9.394;2023-03-26T07:19:39;24.60;;;23.03;;
21505;SDS011;10914;48.886;9.394;2023-03-26T07:22:04;24.83;;;23.17;;
21505;SDS011;10914;48.886;9.394;2023-03-26T07:24:29;24.67;;;22.92;;
21505;SDS011;10914;48.886;9.394;2023-03-26T07:26:58;24.63;;;23.23;;
21505;SDS011;10914;48.886;9.394;2023-03-26T07:29:34;24.67;;;23.25;;
21505;SDS011;10914;48.886;9.394;2023-03-26T07:37:19;23.85;;;22.35;;
21505;SDS011;10914;48.886;9.394;2023-03-26T07:44:50;24.05;;;22.58;;
21505;SDS011;10914;48.886;9.394;2023-03-26T07:47:23;23.30;;;21.95;;
21505;SDS011;10914;48.886;9.394;2023-03-26T07:49:52;24.17;;;22.77;;
21505;SDS011;10914;48.886;9.394;2023-03-26T07:52:18;24.05;;;22.48;;
21505;SDS011;10914;48.886;9.394;2023-03-26T07:54:43;24.27;;;22.70;;
21505;SDS011;10914;48.886;9.394;2023-03-26T07:57:12;24.55;;;23.05;;
21505;SDS011;10914;48.886;9.394;2023-03-26T07:59:46;24.02;;;22.63;;
21505;SDS011;10914;48.886;9.394;2023-03-26T08:05:07;25.40;;;24.00;;
21505;SDS011;10914;48.886;9.394;2023-03-26T08:08:20;23.98;;;22.63;;
21505;SDS011;10914;48.886;9.394;2023-03-26T08:15:37;25.70;;;23.58;;
21505;SDS011;10914;48.886;9.394;2023-03-26T08:20:59;25.23;;;23.73;;
21505;SDS011;10914;48.886;9.394;2023-03-26T08:23:37;25.13;;;23.45;;
21505;SDS011;10914;48.886;9.394;2023-03-26T08:31:07;24.63;;;23.05;;
21505;SDS011;10914;48.886;9.394;2023-03-26T08:33:33;24.67;;;23.10;;
21505;SDS011;10914;48.886;9.394;2023-03-26T08:36:00;26.55;;;24.58;;
21505;SDS011;10914;48.886;9.394;2023-03-26T08:38:25;26.10;;;24.40;;
21505;SDS011;10914;48.886;9.394;2023-03-26T09:01:57;26.77;;;24.92;;
21505;SDS011;10914;48.886;9.394;2023-03-26T09:04:28;25.15;;;23.52;;
21505;SDS011;10914;48.886;9.394;2023-03-26T09:07:05;25.63;;;23.90;;
21505;SDS011;10914;48.886;9.394;2023-03-26T09:17:40;26.73;;;24.92;;
21505;SDS011;10914;48.886;9.394;2023-03-26T09:22:39;25.02;;;23.42;;
21505;SDS011;10914;48.886;9.394;2023-03-26T09:30:26;25.50;;;23.83;;
21505;SDS011;10914;48.886;9.394;2023-03-26T09:53:48;27.90;;;26.40;;
21505;SDS011;10914;48.886;9.394;2023-03-26T09:56:21;30.52;;;28.50;;
21505;SDS011;10914;48.886;9.394;2023-03-26T09:59:04;32.13;;;30.42;;
21505;SDS011;10914;48.886;9.394;2023-03-26T10:09:37;24.58;;;23.25;;
21505;SDS011;10914;48.886;9.394;2023-03-26T10:32:21;22.25;;;20.95;;
21505;SDS011;10914;48.886;9.394;2023-03-26T10:39:59;21.33;;;20.30;;
21505;SDS011;10914;48.886;9.394;2023-03-26T10:45:17;22.50;;;21.10;;
21505;SDS011;10914;48.886;9.394;2023-03-26T10:50:51;22.10;;;21.00;;
21505;SDS011;10914;48.886;9.394;2023-03-26T10:56:34;21.42;;;20.33;;
21505;SDS011;10914;48.886;9.394;2023-03-26T10:59:04;21.10;;;20.00;;
21505;SDS011;10914;48.886;9.394;2023-03-26T11:01:33;20.90;;;19.85;;
21505;SDS011;10914;48.886;9.394;2023-03-26T11:04:06;21.70;;;20.60;;
21505;SDS011;10914;48.886;9.394;2023-03-26T11:06:43;20.42;;;19.40;;
21505;SDS011;10914;48.886;9.394;2023-03-26T11:09:20;22.58;;;21.38;;
21505;SDS011;10914;48.886;9.394;2023-03-26T11:11:51;21.92;;;20.83;;
21505;SDS011;10914;48.886;9.394;2023-03-26T11:14:33;22.77;;;21.67;;
21505;SDS011;10914;48.886;9.394;2023-03-26T11:24:43;19.58;;;18.50;;
21505;SDS011;10914;48.886;9.394;2023-03-26T11:27:18;19.15;;;18.15;;
21505;SDS011;10914;48.886;9.394;2023-03-26T11:32:47;18.88;;;17.88;;
21505;SDS011;10914;48.886;9.394;2023-03-26T11:37:39;19.80;;;18.80;;
21505;SDS011;10914;48.886;9.394;2023-03-26T11:40:11;19.55;;;18.65;;
21505;SDS011;10914;48.886;9.394;2023-03-26T11:42:38;19.58;;;18.42;;
21505;SDS011;10914;48.886;9.394;2023-03-26T11:45:19;19.35;;;18.35;;
21505;SDS011;10914;48.886;9.394;2023-03-26T11:47:47;19.70;;;18.60;;
21505;SDS011;10914;48.886;9.394;2023-03-26T11:50:15;19.38;;;18.48;;
21505;SDS011;10914;48.886;9.394;2023-03-26T11:52:41;20.05;;;19.08;;
21505;SDS011;10914;48.886;9.394;2023-03-26T11:55:10;21.02;;;20.02;;
21505;SDS011;10914;48.886;9.394;2023-03-26T11:57:36;20.80;;;19.70;;
21505;SDS011;10914;48.886;9.394;2023-03-26T12:00:09;23.75;;;22.63;;
21505;SDS011;10914;48.886;9.394;2023-03-26T12:02:42;28.23;;;26.80;;
21505;SDS011;10914;48.886;9.394;2023-03-26T12:05:12;24.55;;;23.45;;
21505;SDS011;10914;48.886;9.394;2023-03-26T12:10:22;20.60;;;19.60;;
21505;SDS011;10914;48.886;9.394;2023-03-26T12:12:48;21.75;;;20.58;;
21505;SDS011;10914;48.886;9.394;2023-03-26T12:15:16;33.92;;;32.10;;
21505;SDS011;10914;48.886;9.394;2023-03-26T12:17:43;22.00;;;20.90;;
21505;SDS011;10914;48.886;9.394;2023-03-26T12:20:29;20.63;;;19.50;;
21505;SDS011;10914;48.886;9.394;2023-03-26T12:22:55;20.63;;;19.63;;
21505;SDS011;10914;48.886;9.394;2023-03-26T12:25:24;23.10;;;21.98;;
21505;SDS011;10914;48.886;9.394;2023-03-26T12:27:51;20.42;;;19.25;;
21505;SDS011;10914;48.886;9.394;2023-03-26T12:30:23;21.13;;;20.13;;
21505;SDS011;10914;48.886;9.394;2023-03-26T12:32:50;22.35;;;21.05;;
21505;SDS011;10914;48.886;9.394;2023-03-26T12:35:16;22.17;;;21.02;;
21505;SDS011;10914;48.886;9.394;2023-03-26T12:37:45;23.58;;;22.33;;
21505;SDS011;10914;48.886;9.394;2023-03-26T12:42:59;21.30;;;20.10;;
21505;SDS011;10914;48.886;9.394;2023-03-26T12:45:29;20.88;;;19.70;;
21505;SDS011;10914;48.886;9.394;2023-03-26T12:47:54;23.35;;;22.17;;
21505;SDS011;10914;48.886;9.394;2023-03-26T12:50:22;22.70;;;21.60;;
21505;SDS011;10914;48.886;9.394;2023-03-26T12:53:26;18.80;;;17.90;;
21505;SDS011;10914;48.886;9.394;2023-03-26T12:56:07;19.13;;;18.17;;
21505;SDS011;10914;48.886;9.394;2023-03-26T12:58:52;19.23;;;18.33;;
21505;SDS011;10914;48.886;9.394;2023-03-26T13:10:10;22.40;;;21.15;;
21505;SDS011;10914;48.886;9.394;2023-03-26T13:20:47;19.50;;;18.50;;
21505;SDS011;10914;48.886;9.394;2023-03-26T13:26:10;19.67;;;18.67;;
21505;SDS011;10914;48.886;9.394;2023-03-26T13:31:45;21.42;;;20.33;;
21505;SDS011;10914;48.886;9.394;2023-03-26T13:34:15;21.13;;;20.02;;
21505;SDS011;10914;48.886;9.394;2023-03-26T13:44:20;19.40;;;18.45;;
21505;SDS011;10914;48.886;9.394;2023-03-26T13:46:54;19.60;;;18.60;;
21505;SDS011;10914;48.886;9.394;2023-03-26T13:57:03;20.88;;;19.77;;
21505;SDS011;10914;48.886;9.394;2023-03-26T13:59:52;20.23;;;19.08;;
21505;SDS011;10914;48.886;9.394;2023-03-26T14:02:27;19.52;;;18.55;;
21505;SDS011;10914;48.886;9.394;2023-03-26T14:04:59;20.10;;;19.10;;
21505;SDS011;10914;48.886;9.394;2023-03-26T14:07:31;20.15;;;19.05;;
21505;SDS011;10914;48.886;9.394;2023-03-26T14:12:41;20.38;;;19.08;;
21505;SDS011;10914;48.886;9.394;2023-03-26T14:15:15;19.58;;;18.67;;
21505;SDS011;10914;48.886;9.394;2023-03-26T14:17:47;20.80;;;19.67;;
21505;SDS011;10914;48.886;9.394;2023-03-26T14:25:24;22.45;;;21.30;;
21505;SDS011;10914;48.886;9.394;2023-03-26T14:33:36;22.02;;;20.90;;
21505;SDS011;10914;48.886;9.394;2023-03-26T14:38:56;21.02;;;19.83;;
21505;SDS011;10914;48.886;9.394;2023-03-26T14:41:22;20.23;;;19.13;;
21505;SDS011;10914;48.886;9.394;2023-03-26T14:49:24;20.30;;;19.30;;
21505;SDS011;10914;48.886;9.394;2023-03-26T14:54:18;23.55;;;22.17;;
21505;SDS011;10914;48.886;9.394;2023-03-26T14:56:51;21.98;;;20.77;;
21505;SDS011;10914;48.886;9.394;2023-03-26T14:59:23;20.48;;;19.48;;
21505;SDS011;10914;48.886;9.394;2023-03-26T15:04:50;21.05;;;20.05;;
21505;SDS011;10914;48.886;9.394;2023-03-26T15:12:26;22.15;;;20.95;;
21505;SDS011;10914;48.886;9.394;2023-03-26T15:15:26;21.95;;;20.95;;
21505;SDS011;10914;48.886;9.394;2023-03-26T15:26:29;24.77;;;23.42;;
21505;SDS011;10914;48.886;9.394;2023-03-26T15:28:55;22.17;;;21.17;;
21505;SDS011;10914;48.886;9.394;2023-03-26T15:44:16;21.33;;;20.42;;
21505;SDS011;10914;48.886;9.394;2023-03-26T15:57:25;22.40;;;21.40;;
21505;SDS011;10914;48.886;9.394;2023-03-26T15:59:58;21.80;;;20.80;;
21505;SDS011;10914;48.886;9.394;2023-03-26T16:02:35;21.95;;;20.95;;
21505;SDS011;10914;48.886;9.394;2023-03-26T16:05:18;22.17;;;21.17;;
21505;SDS011;10914;48.886;9.394;2023-03-26T16:10:19;23.25;;;22.15;;
21505;SDS011;10914;48.886;9.394;2023-03-26T16:12:49;24.00;;;22.90;;
21505;SDS011;10914;48.886;9.394;2023-03-26T16:15:30;27.25;;;25.75;;
21505;SDS011;10914;48.886;9.394;2023-03-26T16:20:46;25.88;;;24.67;;
21505;SDS011;10914;48.886;9.394;2023-03-26T16:25:53;27.10;;;25.80;;
21505;SDS011;10914;48.886;9.394;2023-03-26T16:28:27;28.00;;;26.52;;
21505;SDS011;10914;48.886;9.394;2023-03-26T16:31:38;26.20;;;24.88;;
21505;SDS011;10914;48.886;9.394;2023-03-26T16:36:36;25.23;;;24.10;;
21505;SDS011;10914;48.886;9.394;2023-03-26T16:41:29;24.45;;;23.35;;
21505;SDS011;10914;48.886;9.394;2023-03-26T16:44:07;24.42;;;23.33;;
21505;SDS011;10914;48.886;9.394;2023-03-26T16:51:37;24.77;;;23.52;;
21505;SDS011;10914;48.886;9.394;2023-03-26T16:59:38;25.02;;;23.83;;
21505;SDS011;10914;48.886;9.394;2023-03-26T17:02:25;24.05;;;22.95;;
21505;SDS011;10914;48.886;9.394;2023-03-26T17:04:58;26.45;;;24.95;;
21505;SDS011;10914;48.886;9.394;2023-03-26T17:07:31;23.67;;;22.58;;
21505;SDS011;10914;48.886;9.394;2023-03-26T17:20:38;24.17;;;23.08;;
21505;SDS011;10914;48.886;9.394;2023-03-26T17:23:09;25.10;;;24.00;;
21505;SDS011;10914;48.886;9.394;2023-03-26T17:25:53;25.40;;;24.30;;
21505;SDS011;10914;48.886;9.394;2023-03-26T17:28:24;26.85;;;25.55;;
21505;SDS011;10914;48.886;9.394;2023-03-26T17:33:36;27.33;;;25.92;;
21505;SDS011;10914;48.886;9.394;2023-03-26T17:41:09;31.30;;;29.80;;
21505;SDS011;10914;48.886;9.394;2023-03-26T17:46:11;30.65;;;29.25;;
21505;SDS011;10914;48.886;9.394;2023-03-26T17:48:39;31.17;;;29.67;;
21505;SDS011;10914;48.886;9.394;2023-03-26T17:51:26;34.58;;;32.92;;
21505;SDS011;10914;48.886;9.394;2023-03-26T17:53:53;30.98;;;29.48;;
21505;SDS011;10914;48.886;9.394;2023-03-26T17:56:20;33.45;;;31.75;;
21505;SDS011;10914;48.886;9.394;2023-03-26T17:58:48;30.67;;;29.23;;
21505;SDS011;10914;48.886;9.394;2023-03-26T18:03:51;31.17;;;29.60;;
21505;SDS011;10914;48.886;9.394;2023-03-26T18:09:03;29.83;;;28.33;;
21505;SDS011;10914;48.886;9.394;2023-03-26T18:16:36;30.73;;;28.92;;
21505;SDS011;10914;48.886;9.394;2023-03-26T18:19:24;30.70;;;29.08;;
21505;SDS011;10914;48.886;9.394;2023-03-26T18:21:49;31.40;;;29.77;;
21505;SDS011;10914;48.886;9.394;2023-03-26T18:24:26;31.95;;;30.08;;
21505;SDS011;10914;48.886;9.394;2023-03-26T18:27:02;29.75;;;28.27;;
21505;SDS011;10914;48.886;9.394;2023-03-26T18:29:29;31.23;;;29.20;;
21505;SDS011;10914;48.886;9.394;2023-03-26T18:31:58;30.85;;;29.00;;
21505;SDS011;10914;48.886;9.394;2023-03-26T18:34:31;30.60;;;28.70;;
21505;SDS011;10914;48.886;9.394;2023-03-26T18:39:23;24.80;;;23.60;;
21505;SDS011;10914;48.886;9.394;2023-03-26T18:41:49;25.63;;;24.42;;
21505;SDS011;10914;48.886;9.394;2023-03-26T18:44:14;25.77;;;24.40;;
21505;SDS011;10914;48.886;9.394;2023-03-26T18:46:41;28.10;;;26.55;;
21505;SDS011;10914;48.886;9.394;2023-03-26T18:49:12;30.63;;;28.48;;
21505;SDS011;10914;48.886;9.394;2023-03-26T18:51:39;26.42;;;25.02;;
21505;SDS011;10914;48.886;9.394;2023-03-26T18:54:04;26.52;;;25.13;;
21505;SDS011;10914;48.886;9.394;2023-03-26T18:58:57;25.17;;;23.98;;
21505;SDS011;10914;48.886;9.394;2023-03-26T19:01:26;26.45;;;25.20;;
21505;SDS011;10914;48.886;9.394;2023-03-26T19:03:56;26.63;;;25.42;;
21505;SDS011;10914;48.886;9.394;2023-03-26T19:06:21;26.75;;;25.45;;
21505;SDS011;10914;48.886;9.394;2023-03-26T19:08:48;24.90;;;23.73;;
21505;SDS011;10914;48.886;9.394;2023-03-26T19:11:15;24.50;;;23.38;;
21505;SDS011;10914;48.886;9.394;2023-03-26T19:13:41;25.02;;;23.83;;
21505;SDS011;10914;48.886;9.394;2023-03-26T19:16:10;24.73;;;23.42;;
21505;SDS011;10914;48.886;9.394;2023-03-26T19:18:36;25.88;;;24.58;;
21505;SDS011;10914;48.886;9.394;2023-03-26T19:21:04;26.23;;;24.92;;
21505;SDS011;10914;48.886;9.394;2023-03-26T19:23:32;25.58;;;24.40;;
21505;SDS011;10914;48.886;9.394;2023-03-26T19:25:59;24.80;;;23.60;;
21505;SDS011;10914;48.886;9.394;2023-03-26T19:28:34;25.27;;;24.08;;
21505;SDS011;10914;48.886;9.394;2023-03-26T19:31:08;24.50;;;23.40;;
21505;SDS011;10914;48.886;9.394;2023-03-26T19:33:41;24.88;;;23.58;;
21505;SDS011;10914;48.886;9.394;2023-03-26T19:38:42;26.77;;;25.48;;
21505;SDS011;10914;48.886;9.394;2023-03-26T19:41:21;25.08;;;23.88;;
21505;SDS011;10914;48.886;9.394;2023-03-26T19:43:55;25.77;;;24.52;;
21505;SDS011;10914;48.886;9.394;2023-03-26T19:46:24;25.42;;;24.02;;
21505;SDS011;10914;48.886;9.394;2023-03-26T19:48:54;25.73;;;24.33;;
21505;SDS011;10914;48.886;9.394;2023-03-26T19:51:21;25.77;;;24.58;;
21505;SDS011;10914;48.886;9.394;2023-03-26T19:53:53;26.02;;;24.73;;